createdAt,value
2019-05-13T00:01:17.962Z,95087.11
2019-05-13T00:03:44.091Z,95092.84
2019-05-13T00:06:09.981Z,95082.30
2019-05-13T00:08:35.971Z,95082.70
2019-05-13T00:11:04.206Z,95082.30
2019-05-13T00:13:27.989Z,95085.78
2019-05-13T00:15:54.476Z,95089.36
2019-05-13T00:18:20.028Z,95090.69
2019-05-13T00:20:46.023Z,95097.83
2019-05-13T00:23:14.065Z,95089.86
2019-05-13T00:25:38.042Z,95088.52
2019-05-13T00:28:04.399Z,95094.79
2019-05-13T00:30:30.060Z,95085.48
2019-05-13T00:32:56.077Z,95091.60
2019-05-13T00:35:23.311Z,95090.27
2019-05-13T00:37:48.070Z,95093.34
2019-05-13T00:40:14.525Z,95086.28
2019-05-13T00:42:40.088Z,95083.73
2019-05-13T00:45:06.128Z,95078.83
2019-05-13T00:47:34.106Z,95078.42
2019-05-13T00:49:58.147Z,95088.94
2019-05-13T00:52:24.218Z,95088.14
2019-05-13T00:54:50.222Z,95094.38
2019-05-13T00:57:16.232Z,95093.46
2019-05-13T00:59:44.145Z,95087.73
2019-05-13T01:02:08.249Z,95085.98
2019-05-13T01:04:34.271Z,95085.48
2019-05-13T01:07:00.271Z,95087.20
2019-05-13T01:09:26.294Z,95081.08
2019-05-13T01:11:53.705Z,95087.73
2019-05-13T01:14:18.313Z,95093.46
2019-05-13T01:16:44.531Z,95089.55
2019-05-13T01:19:10.323Z,95092.63
2019-05-13T01:21:36.370Z,95089.97
2019-05-13T01:24:03.784Z,95086.48
2019-05-13T01:26:28.388Z,95084.23
2019-05-13T01:28:54.385Z,95080.74
2019-05-13T01:31:20.409Z,95085.14
2019-05-13T01:33:46.406Z,95089.05
2019-05-13T01:36:13.435Z,95091.80
2019-05-13T01:38:38.428Z,95088.22
2019-05-13T01:41:04.647Z,95088.22
2019-05-13T01:43:30.438Z,95093.13
2019-05-13T01:45:56.437Z,95092.71
2019-05-13T01:48:24.026Z,95093.55
2019-05-13T01:50:48.451Z,95094.45
2019-05-13T01:53:14.669Z,95093.13
2019-05-13T01:55:40.494Z,95091.00
2019-05-13T01:58:06.493Z,95091.80
2019-05-13T02:00:35.271Z,95088.64
2019-05-13T02:02:58.504Z,95086.06
2019-05-13T02:05:24.509Z,95099.78
2019-05-13T02:07:59.666Z,95091.80
2019-05-13T02:10:16.521Z,95098.03
2019-05-13T02:12:44.581Z,95094.45
2019-05-13T02:15:08.571Z,95106.84
2019-05-13T02:17:34.573Z,95103.77
2019-05-13T02:20:00.585Z,95100.19
2019-05-13T02:22:26.585Z,95102.02
2019-05-13T02:24:53.535Z,95103.77
2019-05-13T02:27:18.601Z,95104.18
2019-05-13T02:29:44.623Z,95108.67
2019-05-13T02:32:13.639Z,95113.61
2019-05-13T02:34:36.612Z,95117.59
2019-05-13T02:37:03.408Z,95121.47
2019-05-13T02:39:28.624Z,95108.67
2019-05-13T02:41:54.668Z,95106.54
2019-05-13T02:44:22.579Z,95103.34
2019-05-13T02:46:46.671Z,95110.95
2019-05-13T02:49:12.689Z,95108.37
2019-05-13T02:51:38.690Z,95109.61
2019-05-13T02:54:04.683Z,95109.61
2019-05-13T02:56:33.040Z,95122.91
2019-05-13T02:58:56.709Z,95126.07
2019-05-13T03:01:22.725Z,95130.47
2019-05-13T03:03:52.543Z,95131.39
2019-05-13T03:06:14.745Z,95130.89
2019-05-13T03:08:49.096Z,95131.89
2019-05-13T03:11:06.800Z,95145.91
2019-05-13T03:13:33.207Z,95145.52
2019-05-13T03:16:02.506Z,95150.42
2019-05-13T03:18:24.829Z,95148.18
2019-05-13T03:20:52.956Z,95143.66
2019-05-13T03:23:16.837Z,95142.86
2019-05-13T03:25:43.116Z,95152.17
2019-05-13T03:28:08.862Z,95146.44
2019-05-13T03:30:35.815Z,95150.01
2019-05-13T03:33:07.962Z,95154.41
2019-05-13T03:35:37.233Z,95162.59
2019-05-13T03:38:03.749Z,95154.00
2019-05-13T03:40:32.949Z,95150.92
2019-05-13T03:42:56.373Z,95146.93
2019-05-13T03:45:22.369Z,95151.34
2019-05-13T03:47:48.384Z,95158.91
2019-05-13T03:50:14.378Z,95157.16
2019-05-13T03:52:43.121Z,95157.16
2019-05-13T03:55:06.535Z,95163.30
2019-05-13T03:57:33.774Z,95161.56
2019-05-13T03:59:58.535Z,95157.98
2019-05-13T04:02:24.579Z,95153.50
2019-05-13T04:04:52.968Z,95158.29
2019-05-13T04:07:16.620Z,95156.95
2019-05-13T04:09:42.817Z,95152.55
2019-05-13T04:12:08.673Z,95151.64
2019-05-13T04:14:34.681Z,95155.63
2019-05-13T04:17:02.954Z,95156.66
2019-05-13T04:19:26.696Z,95159.54
2019-05-13T04:21:53.021Z,95160.53
2019-05-13T04:24:18.727Z,95161.28
2019-05-13T04:26:44.742Z,95168.84
2019-05-13T04:29:13.209Z,95173.64
2019-05-13T04:31:36.788Z,95165.27
2019-05-13T04:34:02.816Z,95169.64
2019-05-13T04:36:31.837Z,95171.09
2019-05-13T04:38:54.816Z,95175.72
2019-05-13T04:41:22.972Z,95174.39
2019-05-13T04:43:46.902Z,95176.10
2019-05-13T04:46:14.106Z,95173.86
2019-05-13T04:48:43.569Z,95163.75
2019-05-13T04:51:04.981Z,95164.88
2019-05-13T04:53:33.323Z,95163.44
2019-05-13T04:55:57.002Z,95158.04
2019-05-13T04:58:23.724Z,95161.50
2019-05-13T05:00:56.061Z,95164.98
2019-05-13T05:03:23.139Z,95160.50
2019-05-13T05:05:42.060Z,95159.56
2019-05-13T05:08:07.095Z,95162.63
2019-05-13T05:10:38.292Z,95160.39
2019-05-13T05:12:59.131Z,95163.16
2019-05-13T05:15:25.148Z,95152.52
2019-05-13T05:17:52.191Z,95148.92
2019-05-13T05:20:17.163Z,95154.66
2019-05-13T05:22:43.664Z,95148.42
2019-05-13T05:25:11.659Z,95150.25
2019-05-13T05:27:35.713Z,95160.09
2019-05-13T05:30:02.180Z,95171.45
2019-05-13T05:32:27.794Z,95174.19
2019-05-13T05:34:53.780Z,95178.17
2019-05-13T05:37:21.702Z,95179.51
2019-05-13T05:39:45.821Z,95183.50
2019-05-13T05:42:11.848Z,95185.77
2019-05-13T05:44:37.845Z,95185.77
2019-05-13T05:47:03.887Z,95179.13
2019-05-13T05:49:31.996Z,95169.89
2019-05-13T05:51:56.064Z,95168.98
2019-05-13T05:54:22.077Z,95175.63
2019-05-13T05:56:48.082Z,95180.12
2019-05-13T05:59:14.073Z,95176.96
2019-05-13T06:01:41.575Z,95177.88
2019-05-13T06:06:36.406Z,95161.00
2019-05-13T06:09:02.430Z,95162.33
2019-05-13T06:11:28.443Z,95165.91
2019-05-13T06:13:54.727Z,95178.29
2019-05-13T06:16:21.835Z,95181.03
2019-05-13T06:18:49.064Z,95176.66
2019-05-13T06:21:15.187Z,95169.48
2019-05-13T06:23:41.835Z,95177.05
2019-05-13T06:26:07.207Z,95177.45
2019-05-13T06:28:33.222Z,95174.00
2019-05-13T06:31:02.303Z,95170.01
2019-05-13T06:33:25.275Z,95177.57
2019-05-13T06:35:52.128Z,95181.03
2019-05-13T06:38:17.577Z,95177.57
2019-05-13T06:40:43.573Z,95174.91
2019-05-13T06:43:11.845Z,95181.56
2019-05-13T06:45:35.622Z,95176.73
2019-05-13T06:48:02.404Z,95178.48
2019-05-13T06:50:27.666Z,95187.80
2019-05-13T06:52:53.743Z,95188.30
2019-05-13T06:55:21.236Z,95186.88
2019-05-13T06:57:45.733Z,95188.21
2019-05-13T07:00:12.282Z,95186.96
2019-05-13T07:02:37.805Z,95189.63
2019-05-13T07:05:03.827Z,95195.36
2019-05-13T07:07:31.845Z,95190.04
2019-05-13T07:09:55.899Z,95194.45
2019-05-13T07:12:22.122Z,95191.87
2019-05-13T07:14:48.030Z,95191.78
2019-05-13T07:17:14.159Z,95195.36
2019-05-13T07:19:41.453Z,95201.09
2019-05-13T07:22:06.311Z,95201.59
2019-05-13T07:24:32.664Z,95212.34
2019-05-13T07:26:58.480Z,95215.72
2019-05-13T07:29:24.512Z,95216.56
2019-05-13T07:31:52.273Z,95218.08
2019-05-13T07:34:16.762Z,95217.97
2019-05-13T07:36:42.836Z,95215.42
2019-05-13T07:39:08.837Z,95218.47
2019-05-13T07:41:39.187Z,95211.31
2019-05-13T07:44:02.588Z,95214.48
2019-05-13T07:46:27.010Z,95224.20
2019-05-13T07:48:53.068Z,95226.06
2019-05-13T07:51:19.100Z,95224.73
2019-05-13T07:53:45.118Z,95224.31
2019-05-13T07:56:12.446Z,95223.40
2019-05-13T07:58:37.836Z,95230.44
2019-05-13T08:01:03.327Z,95222.57
2019-05-13T08:03:31.563Z,95226.45
2019-05-13T08:05:55.487Z,95228.72
2019-05-13T08:08:22.118Z,95226.06
2019-05-13T08:10:47.623Z,95231.77
2019-05-13T08:13:13.654Z,95242.94
2019-05-13T08:15:41.953Z,95235.87
2019-05-13T08:18:05.710Z,95239.86
2019-05-13T08:20:32.764Z,95235.45
2019-05-13T08:22:57.842Z,95241.19
2019-05-13T08:25:23.849Z,95236.36
2019-05-13T08:27:51.434Z,95246.51
2019-05-13T08:30:18.130Z,95240.36
2019-05-13T08:32:42.091Z,95235.95
2019-05-13T08:35:09.169Z,95239.44
2019-05-13T08:37:33.968Z,95234.23
2019-05-13T08:40:01.580Z,95233.29
2019-05-13T08:42:25.990Z,95240.97
2019-05-13T08:44:52.532Z,95244.45
2019-05-13T08:47:18.068Z,95236.48
2019-05-13T08:49:44.112Z,95230.33
2019-05-13T08:52:12.141Z,95223.67
2019-05-13T08:54:36.176Z,95225.50
2019-05-13T08:57:02.770Z,95224.51
2019-05-13T08:59:28.201Z,95220.71
2019-05-13T09:01:54.200Z,95213.45
2019-05-13T09:04:22.266Z,95204.64
2019-05-13T09:06:46.236Z,95205.05
2019-05-13T09:09:12.426Z,95208.13
2019-05-13T09:11:38.476Z,95206.88
2019-05-13T09:14:04.517Z,95208.21
2019-05-13T09:16:31.993Z,95218.36
2019-05-13T09:18:56.502Z,95215.81
2019-05-13T09:21:22.651Z,95227.78
2019-05-13T09:23:48.513Z,95223.38
2019-05-13T09:26:14.513Z,95227.36
2019-05-13T09:28:41.736Z,95225.50
2019-05-13T09:31:06.552Z,95219.80
2019-05-13T09:33:32.900Z,95212.73
2019-05-13T09:35:58.570Z,95212.73
2019-05-13T09:38:24.582Z,95210.07
2019-05-13T09:40:53.103Z,95215.39
2019-05-13T09:43:16.591Z,95227.78
2019-05-13T09:45:42.612Z,95236.67
2019-05-13T09:48:08.599Z,95237.58
2019-05-13T09:50:36.213Z,95238.91
2019-05-13T09:53:02.750Z,95229.19
2019-05-13T09:55:29.276Z,95218.13
2019-05-13T09:57:52.677Z,95207.91
2019-05-13T10:00:18.631Z,95206.16
2019-05-13T10:02:44.653Z,95202.59
2019-05-13T10:05:11.520Z,95203.09
2019-05-13T10:07:36.672Z,95205.36
2019-05-13T10:10:02.699Z,95216.00
2019-05-13T10:12:28.707Z,95231.43
2019-05-13T10:14:54.728Z,95240.73
2019-05-13T10:17:22.106Z,95254.04
2019-05-13T10:19:46.742Z,95257.61
2019-05-13T10:22:12.818Z,95258.56
2019-05-13T10:24:38.756Z,95252.41
2019-05-13T10:27:04.796Z,95246.17
2019-05-13T10:29:31.692Z,95247.09
2019-05-13T10:31:56.806Z,95240.02
2019-05-13T10:34:22.937Z,95239.52
2019-05-13T10:36:51.239Z,95233.98
2019-05-13T10:39:14.820Z,95237.78
2019-05-13T10:41:42.383Z,95235.01
2019-05-13T10:44:07.081Z,95240.44
2019-05-13T10:46:33.077Z,95241.27
2019-05-13T10:49:01.708Z,95237.66
2019-05-13T10:51:25.516Z,95228.27
2019-05-13T10:53:53.614Z,95222.66
2019-05-13T10:56:17.679Z,95215.17
2019-05-13T10:58:43.718Z,95208.52
2019-05-13T11:01:11.583Z,95206.69
2019-05-13T11:03:35.808Z,95211.59
2019-05-13T11:06:02.537Z,95219.66
2019-05-13T11:08:28.529Z,95217.33
2019-05-13T11:10:55.674Z,95210.27
2019-05-13T11:13:23.257Z,95216.39
2019-05-13T11:15:47.698Z,95213.34
2019-05-13T11:18:19.097Z,95220.38
2019-05-13T11:20:41.937Z,95215.89
2019-05-13T11:23:05.755Z,95220.38
2019-05-13T11:25:32.383Z,95219.05
2019-05-13T11:28:01.678Z,95215.89
2019-05-13T11:30:26.057Z,95207.50
2019-05-13T11:32:52.047Z,95207.91
2019-05-13T11:35:18.073Z,95215.06
2019-05-13T11:37:44.063Z,95210.57
2019-05-13T11:40:12.000Z,95208.41
2019-05-13T11:42:36.216Z,95216.00
2019-05-13T11:45:02.190Z,95219.88
2019-05-13T11:47:28.207Z,95216.92
2019-05-13T11:49:54.206Z,95216.30
2019-05-13T11:52:22.690Z,95217.22
2019-05-13T11:54:46.803Z,95210.57
2019-05-13T11:57:12.898Z,95215.39
2019-05-13T11:59:42.380Z,95211.82
2019-05-13T12:02:05.058Z,95210.98
2019-05-13T12:04:34.579Z,95211.41
2019-05-13T12:06:56.951Z,95213.15
2019-05-13T12:09:22.965Z,95223.38
2019-05-13T12:11:48.960Z,95216.30
2019-05-13T12:14:42.412Z,95210.07
2019-05-13T12:16:42.337Z,95217.33
2019-05-13T12:19:07.133Z,95222.34
2019-05-13T12:21:33.232Z,95217.86
2019-05-13T12:24:06.645Z,95210.80
2019-05-13T12:26:25.243Z,95204.56
2019-05-13T12:28:53.529Z,95205.78
2019-05-13T12:31:17.381Z,95200.98
2019-05-13T12:33:44.047Z,95200.88
2019-05-13T12:36:15.374Z,95199.55
2019-05-13T12:38:35.466Z,95204.37
2019-05-13T12:41:05.037Z,95199.84
2019-05-13T12:43:27.597Z,95194.52
2019-05-13T12:45:53.702Z,95195.36
2019-05-13T12:48:22.669Z,95193.95
2019-05-13T12:50:45.843Z,95184.22
2019-05-13T12:53:12.943Z,95184.64
2019-05-13T12:55:38.253Z,95177.45
2019-05-13T12:58:04.334Z,95180.53
2019-05-13T13:00:32.922Z,95184.03
2019-05-13T13:02:56.354Z,95184.33
2019-05-13T13:05:24.811Z,95181.67
2019-05-13T13:08:13.605Z,95177.05
2019-05-13T13:10:14.895Z,95171.64
2019-05-13T13:12:42.102Z,95166.95
2019-05-13T13:15:31.991Z,95166.84
2019-05-13T13:17:32.447Z,95154.98
2019-05-13T13:20:06.199Z,95158.45
2019-05-13T13:22:25.325Z,95154.45
2019-05-13T13:24:52.983Z,95162.44
2019-05-13T13:27:25.915Z,95158.45
2019-05-13T13:29:43.278Z,95153.95
2019-05-13T13:32:08.633Z,95156.54
2019-05-13T13:34:34.626Z,95154.27
2019-05-13T13:37:04.694Z,95154.27
2019-05-13T13:39:26.682Z,95162.66
2019-05-13T13:41:53.605Z,95170.75
2019-05-13T13:44:18.675Z,95168.09
2019-05-13T13:46:49.528Z,95161.53
2019-05-13T13:49:13.019Z,95148.23
2019-05-13T13:51:36.702Z,95149.97
2019-05-13T13:54:02.697Z,95149.05
2019-05-13T13:56:28.721Z,95149.05
2019-05-13T13:58:54.777Z,95150.47
2019-05-13T14:01:26.915Z,95149.25
2019-05-13T14:03:46.769Z,95135.42
2019-05-13T14:06:12.891Z,95132.38
2019-05-13T14:08:41.399Z,95135.95
2019-05-13T14:11:04.814Z,95133.70
2019-05-13T14:13:32.376Z,95127.33
2019-05-13T14:15:56.929Z,95126.23
2019-05-13T14:18:26.682Z,95109.97
2019-05-13T14:20:48.940Z,95112.09
2019-05-13T14:23:15.171Z,95118.66
2019-05-13T14:25:42.071Z,95126.72
2019-05-13T14:28:07.190Z,95129.72
2019-05-13T14:30:33.197Z,95115.59
2019-05-13T14:32:59.204Z,95125.20
2019-05-13T14:35:25.223Z,95125.31
2019-05-13T14:37:51.859Z,95127.05
2019-05-13T14:40:17.235Z,95115.59
2019-05-13T14:42:43.281Z,95111.18
2019-05-13T14:45:09.272Z,95107.19
2019-05-13T14:47:35.302Z,95104.64
2019-05-13T14:50:02.088Z,95105.03
2019-05-13T14:52:27.451Z,95106.05
2019-05-13T14:54:53.432Z,95107.39
2019-05-13T14:57:21.545Z,95106.47
2019-05-13T14:59:45.505Z,95095.53
2019-05-13T15:02:12.061Z,95095.53
2019-05-13T15:04:37.725Z,95095.91
2019-05-13T15:07:03.747Z,95098.19
2019-05-13T15:09:31.420Z,95100.85
2019-05-13T15:11:55.966Z,95105.22
2019-05-13T15:14:22.147Z,95105.22
2019-05-13T15:17:02.430Z,95099.91
2019-05-13T15:19:14.089Z,95093.67
2019-05-13T15:21:41.254Z,95095.91
2019-05-13T15:24:06.250Z,95083.36
2019-05-13T15:26:32.146Z,95078.55
2019-05-13T15:29:01.537Z,95073.94
2019-05-13T15:31:24.215Z,95080.09
2019-05-13T15:33:52.360Z,95075.57
2019-05-13T15:36:17.411Z,95076.52
2019-05-13T15:38:43.426Z,95076.81
2019-05-13T15:41:14.732Z,95082.14
2019-05-13T15:43:35.459Z,95081.22
2019-05-13T15:46:02.016Z,95077.65
2019-05-13T15:48:27.524Z,95081.11
2019-05-13T15:50:53.544Z,95091.75
2019-05-13T15:53:21.404Z,95094.83
2019-05-13T15:55:45.545Z,95093.08
2019-05-13T15:58:11.934Z,95094.02
2019-05-13T16:00:37.559Z,95094.83
2019-05-13T16:03:03.696Z,95087.18
2019-05-13T16:05:31.285Z,95091.05
2019-05-13T16:07:55.714Z,95083.98
2019-05-13T16:10:21.909Z,95087.48
2019-05-13T16:12:47.911Z,95087.36
2019-05-13T16:15:15.828Z,95084.82
2019-05-13T16:17:53.623Z,95085.23
2019-05-13T16:20:06.001Z,95088.81
2019-05-13T16:22:32.005Z,95092.19
2019-05-13T16:24:58.039Z,95085.65
2019-05-13T16:27:24.077Z,95088.61
2019-05-13T16:29:51.528Z,95086.17
2019-05-13T16:32:16.099Z,95083.09
2019-05-13T16:34:42.492Z,95084.23
2019-05-13T16:37:08.119Z,95087.30
2019-05-13T16:39:34.178Z,95085.77
2019-05-13T16:42:00.168Z,95093.56
2019-05-13T16:44:26.191Z,95090.78
2019-05-13T16:46:52.196Z,95088.84
2019-05-13T16:49:18.206Z,95084.56
2019-05-13T16:51:44.340Z,95085.40
2019-05-13T16:54:10.347Z,95088.36
2019-05-13T16:56:36.411Z,95086.42
2019-05-13T16:59:02.393Z,95085.00
2019-05-13T17:01:28.719Z,95090.33
2019-05-13T17:03:55.047Z,95093.78
2019-05-13T17:06:21.689Z,95100.97
2019-05-13T17:08:47.069Z,95092.45
2019-05-13T17:11:13.087Z,95098.69
2019-05-13T17:13:39.106Z,95098.30
2019-05-13T17:16:05.103Z,95099.22
2019-05-13T17:18:32.393Z,95096.44
2019-05-13T17:20:57.122Z,95094.70
2019-05-13T17:23:23.149Z,95096.98
2019-05-13T17:25:51.793Z,95104.84
2019-05-13T17:28:15.171Z,95103.09
2019-05-13T17:30:41.182Z,95102.19
2019-05-13T17:33:07.168Z,95102.68
2019-05-13T17:35:33.192Z,95099.52
2019-05-13T17:37:59.195Z,95099.22
2019-05-13T17:40:25.283Z,95100.55
2019-05-13T17:42:51.295Z,95094.31
2019-05-13T17:45:17.299Z,95104.95
2019-05-13T17:47:43.326Z,95101.88
2019-05-13T17:50:11.515Z,95097.48
2019-05-13T17:52:35.354Z,95089.91
2019-05-13T17:55:01.373Z,95085.50
2019-05-13T17:57:27.411Z,95083.67
2019-05-13T17:59:53.408Z,95086.00
2019-05-13T18:02:19.504Z,95090.91
2019-05-13T18:04:45.634Z,95100.64
2019-05-13T18:07:12.209Z,95099.30
2019-05-13T18:09:37.723Z,95095.42
2019-05-13T18:12:03.739Z,95102.50
2019-05-13T18:14:29.982Z,95106.98
2019-05-13T18:16:57.191Z,95098.59
2019-05-13T18:19:22.223Z,95092.35
2019-05-13T18:21:48.021Z,95093.18
2019-05-13T18:24:14.038Z,95093.56
2019-05-13T18:26:41.957Z,95096.14
2019-05-13T18:29:06.224Z,95091.13
2019-05-13T18:31:32.232Z,95090.63
2019-05-13T18:33:58.237Z,95093.70
2019-05-13T18:36:24.255Z,95094.20
2019-05-13T18:38:50.416Z,95099.94
2019-05-13T18:41:16.439Z,95102.19
2019-05-13T18:43:42.436Z,95099.11
2019-05-13T18:46:08.467Z,95092.37
2019-05-13T18:48:34.528Z,95095.95
2019-05-13T18:51:01.315Z,95096.03
2019-05-13T18:53:26.562Z,95100.02
2019-05-13T18:55:52.930Z,95101.88
2019-05-13T18:58:18.957Z,95102.80
2019-05-13T19:00:44.981Z,95109.03
2019-05-13T19:03:12.454Z,95106.87
2019-05-13T19:05:37.298Z,95106.07
2019-05-13T19:08:03.305Z,95108.20
2019-05-13T19:10:31.198Z,95110.48
2019-05-13T19:12:57.854Z,95109.15
2019-05-13T19:15:21.506Z,95113.02
2019-05-13T19:17:47.525Z,95111.28
2019-05-13T19:20:13.533Z,95110.86
2019-05-13T19:22:41.288Z,95106.87
2019-05-13T19:25:05.652Z,95114.36
2019-05-13T19:27:32.141Z,95110.36
2019-05-13T19:29:57.690Z,95105.88
2019-05-13T19:32:23.783Z,95110.28
2019-05-13T19:34:51.665Z,95111.08
2019-05-13T19:37:15.812Z,95108.84
2019-05-13T19:39:42.481Z,95114.98
2019-05-13T19:42:08.476Z,95122.97
2019-05-13T19:44:34.491Z,95122.05
2019-05-13T19:47:02.007Z,95118.06
2019-05-13T19:49:32.616Z,95117.15
2019-05-13T19:51:52.590Z,95113.55
2019-05-13T19:54:18.642Z,95114.48
2019-05-13T19:56:44.664Z,95105.98
2019-05-13T19:59:12.432Z,95101.56
2019-05-13T20:01:36.762Z,95105.89
2019-05-13T20:04:03.584Z,95102.41
2019-05-13T20:06:31.845Z,95103.73
2019-05-13T20:08:55.690Z,95100.16
2019-05-13T20:11:21.925Z,95107.94
2019-05-13T20:13:48.112Z,95109.98
2019-05-13T20:16:14.111Z,95103.83
2019-05-13T20:18:42.096Z,95107.24
2019-05-13T20:21:10.486Z,95114.70
2019-05-13T20:23:34.188Z,95117.77
2019-05-13T20:26:00.315Z,95116.14
2019-05-13T20:28:26.330Z,95106.83
2019-05-13T20:30:52.334Z,95111.73
2019-05-13T20:33:18.356Z,95109.57
2019-05-13T20:35:44.362Z,95109.69
2019-05-13T20:38:11.592Z,95100.45
2019-05-13T20:40:36.552Z,95104.03
2019-05-13T20:43:02.732Z,95103.65
2019-05-13T20:45:31.102Z,95107.22
2019-05-13T20:47:54.724Z,95103.65
2019-05-13T20:50:21.712Z,95095.75
2019-05-13T20:52:46.737Z,95089.21
2019-05-13T20:55:12.760Z,95095.45
2019-05-13T20:57:38.753Z,95097.58
2019-05-13T21:00:04.769Z,95091.87
2019-05-13T21:02:31.959Z,95076.29
2019-05-13T21:04:56.798Z,95077.32
2019-05-13T21:07:22.815Z,95064.94
2019-05-13T21:09:51.119Z,95067.59
2019-05-13T21:12:14.841Z,95072.08
2019-05-13T21:14:41.419Z,95073.03
2019-05-13T21:17:06.888Z,95061.44
2019-05-13T21:19:39.293Z,95054.78
2019-05-13T21:21:58.955Z,95042.81
2019-05-13T21:24:24.954Z,95037.11
2019-05-13T21:26:51.268Z,95021.23
2019-05-13T21:29:17.019Z,95017.23
2019-05-13T21:31:43.026Z,95024.31
2019-05-13T21:34:09.066Z,95020.02
2019-05-13T21:36:35.070Z,95007.34
2019-05-13T21:39:02.973Z,94998.72
2019-05-13T21:41:28.996Z,94998.01
2019-05-13T21:43:54.987Z,95005.98
2019-05-13T21:46:21.320Z,95013.17
2019-05-13T21:48:47.152Z,95022.16
2019-05-13T21:51:13.564Z,95018.70
2019-05-13T21:53:41.258Z,95030.67
2019-05-13T21:56:05.269Z,95025.84
2019-05-13T21:58:31.410Z,95024.10
2019-05-13T22:00:57.328Z,95016.13
2019-05-13T22:03:23.352Z,95023.39
2019-05-13T22:05:51.292Z,95022.05
2019-05-13T22:08:15.361Z,95016.41
2019-05-13T22:10:41.696Z,95022.14
2019-05-13T22:13:07.395Z,95028.49
2019-05-13T22:15:33.398Z,95023.17
2019-05-13T22:17:59.396Z,95022.34
2019-05-13T22:20:25.415Z,95022.88
2019-05-13T22:22:52.040Z,95014.89
2019-05-13T22:25:17.406Z,95014.98
2019-05-13T22:27:43.427Z,95018.55
2019-05-13T22:30:11.698Z,95016.00
2019-05-13T22:32:35.447Z,95007.11
2019-05-13T22:35:01.955Z,95005.03
2019-05-13T22:37:27.515Z,95004.95
2019-05-13T22:39:53.519Z,95007.31
2019-05-13T22:42:21.560Z,95012.62
2019-05-13T22:44:45.637Z,95018.03
2019-05-13T22:47:13.425Z,95035.74
2019-05-13T22:49:37.657Z,95040.77
2019-05-13T22:52:03.652Z,95045.97
2019-05-13T22:54:31.638Z,95050.99
2019-05-13T22:56:55.674Z,95037.69
2019-05-13T22:59:21.669Z,95041.67
2019-05-13T23:01:47.699Z,95036.36
2019-05-13T23:04:13.704Z,95048.00
2019-05-13T23:06:39.716Z,95047.70
2019-05-13T23:09:05.722Z,95037.47
2019-05-13T23:11:31.719Z,95039.72
2019-05-13T23:14:07.338Z,95059.25
2019-05-13T23:16:23.743Z,95068.56
2019-05-13T23:18:51.311Z,95076.66
2019-05-13T23:21:15.751Z,95078.91
2019-05-13T23:23:41.746Z,95082.06
2019-05-13T23:26:07.777Z,95075.41
2019-05-13T23:28:33.769Z,95070.92
2019-05-13T23:31:01.674Z,95057.33
2019-05-13T23:33:25.796Z,95048.81
2019-05-13T23:35:51.798Z,95055.58
2019-05-13T23:38:17.818Z,95053.33
2019-05-13T23:40:43.812Z,95045.85
2019-05-13T23:43:11.304Z,95039.20
2019-05-13T23:45:35.822Z,95033.05
2019-05-13T23:48:01.822Z,95039.28
2019-05-13T23:50:27.828Z,95049.01
2019-05-13T23:52:53.817Z,95043.80
2019-05-13T23:55:19.825Z,95041.14
2019-05-13T23:57:45.821Z,95032.75
